Time;durP1;ratioP1;P1;durP2;ratioP2;P2;SDS_P1;SDS_P2;PMS_P1;PMS_P2;Temp;Humidity;BMP_temperature;BMP_pressure;BME280_temperature;BME280_humidity;BME280_pressure;Samples;Min_cycle;Max_cycle;Signal;HPM_P1;HPM_P2
2022/03/24 00:00:25;;;;;;;47.17;31.05;;;;;;;;;;5009943;28;94378;-72
2022/03/24 00:02:51;;;;;;;53.42;31.38;;;;;;;;;;5010229;28;94849;-72
2022/03/24 00:05:18;;;;;;;46.72;29.90;;;;;;;;;;5010566;28;96303;-72
2022/03/24 00:07:44;;;;;;;55.30;31.48;;;;;;;;;;5010162;28;93434;-72
2022/03/24 00:10:11;;;;;;;60.67;30.88;;;;;;;;;;5010654;28;92561;-72
2022/03/24 00:12:39;;;;;;;52.13;30.02;;;;;;;;;;5010146;28;93994;-71
2022/03/24 00:15:06;;;;;;;53.67;32.83;;;;;;;;;;5012724;28;93392;-72
2022/03/24 00:17:32;;;;;;;49.83;32.38;;;;;;;;;;5012504;28;93492;-72
2022/03/24 00:19:59;;;;;;;52.58;32.38;;;;;;;;;;5015260;28;91796;-72
2022/03/24 00:22:25;;;;;;;52.60;34.30;;;;;;;;;;5013167;28;93912;-72
2022/03/24 00:24:52;;;;;;;57.78;32.60;;;;;;;;;;5014089;28;94023;-72
2022/03/24 00:27:18;;;;;;;52.58;32.78;;;;;;;;;;5012917;28;96459;-72
2022/03/24 00:29:45;;;;;;;53.95;35.10;;;;;;;;;;5013398;28;92435;-72
2022/03/24 00:32:12;;;;;;;53.28;33.63;;;;;;;;;;5014156;28;92997;-72
2022/03/24 00:34:38;;;;;;;50.92;33.20;;;;;;;;;;5013959;28;92390;-72
2022/03/24 00:37:08;;;;;;;54.63;33.38;;;;;;;;;;5018089;28;92496;-72
2022/03/24 00:39:34;;;;;;;53.55;32.67;;;;;;;;;;5013547;28;93209;-72
2022/03/24 00:42:01;;;;;;;56.53;33.55;;;;;;;;;;5013349;28;92494;-72
2022/03/24 00:44:28;;;;;;;53.30;33.70;;;;;;;;;;5015021;28;92829;-72
2022/03/24 00:46:55;;;;;;;53.47;34.03;;;;;;;;;;5013044;28;94438;-72
2022/03/24 00:49:21;;;;;;;58.75;34.47;;;;;;;;;;5014140;28;92443;-72
2022/03/24 00:51:48;;;;;;;54.17;34.03;;;;;;;;;;5011358;28;96676;-72
2022/03/24 00:54:18;;;;;;;61.50;34.50;;;;;;;;;;5014509;28;94188;-72
2022/03/24 00:56:47;;;;;;;53.22;35.13;;;;;;;;;;5011279;28;92888;-72
2022/03/24 00:59:14;;;;;;;62.53;34.55;;;;;;;;;;5017616;28;92927;-72
2022/03/24 01:01:41;;;;;;;55.08;36.15;;;;;;;;;;5011770;28;93853;-71
2022/03/24 01:04:09;;;;;;;51.70;34.95;;;;;;;;;;5013561;28;93196;-72
2022/03/24 01:06:35;;;;;;;48.47;34.40;;;;;;;;;;5012181;28;94420;-72
2022/03/24 01:09:03;;;;;;;53.05;36.20;;;;;;;;;;5015243;28;91714;-72
2022/03/24 01:11:30;;;;;;;51.78;35.65;;;;;;;;;;5011094;28;95140;-72
2022/03/24 01:13:57;;;;;;;53.90;36.42;;;;;;;;;;5013854;28;93175;-72
2022/03/24 01:16:27;;;;;;;53.40;34.85;;;;;;;;;;5010341;28;95039;-72
2022/03/24 01:18:53;;;;;;;58.47;37.17;;;;;;;;;;5011459;28;96306;-71
2022/03/24 01:21:20;;;;;;;61.75;35.83;;;;;;;;;;5015022;28;94973;-72
2022/03/24 01:23:46;;;;;;;55.50;35.80;;;;;;;;;;5013677;28;93125;-71
2022/03/24 01:26:13;;;;;;;58.40;36.95;;;;;;;;;;5013249;28;93422;-72
2022/03/24 01:28:40;;;;;;;56.97;37.08;;;;;;;;;;5012272;28;92562;-71
2022/03/24 01:31:08;;;;;;;57.53;38.33;;;;;;;;;;5011360;28;93236;-72
2022/03/24 01:33:39;;;;;;;61.10;37.47;;;;;;;;;;5014815;28;92243;-72
2022/03/24 01:36:06;;;;;;;57.42;36.53;;;;;;;;;;5013520;28;92763;-72
2022/03/24 01:38:32;;;;;;;59.83;37.15;;;;;;;;;;5012492;28;93092;-71
2022/03/24 01:40:59;;;;;;;63.35;36.33;;;;;;;;;;5010990;28;96591;-71
2022/03/24 01:43:25;;;;;;;55.13;36.05;;;;;;;;;;5015092;28;92660;-71
2022/03/24 01:45:53;;;;;;;61.67;37.13;;;;;;;;;;5011749;28;94469;-71
2022/03/24 01:48:19;;;;;;;60.72;38.50;;;;;;;;;;5012103;28;93618;-71
2022/03/24 01:50:46;;;;;;;60.35;38.78;;;;;;;;;;5012916;28;93398;-71
2022/03/24 01:53:12;;;;;;;59.80;39.53;;;;;;;;;;5012802;28;94286;-71
2022/03/24 01:55:40;;;;;;;57.22;39.13;;;;;;;;;;5009962;28;92715;-71
2022/03/24 01:58:08;;;;;;;59.50;37.83;;;;;;;;;;5012426;28;96092;-71
2022/03/24 02:00:34;;;;;;;64.97;40.03;;;;;;;;;;5027647;28;94204;-71
2022/03/24 02:03:04;;;;;;;74.75;41.15;;;;;;;;;;5014866;28;92453;-71
2022/03/24 02:05:31;;;;;;;69.03;41.13;;;;;;;;;;5026092;27;97415;-71
2022/03/24 02:08:02;;;;;;;61.95;40.85;;;;;;;;;;5011511;28;92553;-71
2022/03/24 02:10:32;;;;;;;58.38;38.78;;;;;;;;;;5010625;28;93462;-71
2022/03/24 02:13:01;;;;;;;61.88;39.65;;;;;;;;;;5008929;28;95426;-71
2022/03/24 02:15:27;;;;;;;63.33;38.70;;;;;;;;;;5027720;28;92720;-71
2022/03/24 02:17:54;;;;;;;68.13;38.97;;;;;;;;;;5013153;28;93367;-71
2022/03/24 02:20:21;;;;;;;61.47;38.63;;;;;;;;;;5009136;28;95809;-71
2022/03/24 02:22:48;;;;;;;63.88;40.30;;;;;;;;;;5012600;28;92605;-71
2022/03/24 02:25:14;;;;;;;66.55;42.55;;;;;;;;;;5015015;28;93186;-71
2022/03/24 02:27:41;;;;;;;62.63;39.88;;;;;;;;;;5012550;28;92627;-71
2022/03/24 02:30:09;;;;;;;65.05;38.25;;;;;;;;;;5010393;28;95216;-71
2022/03/24 02:32:36;;;;;;;63.25;38.38;;;;;;;;;;5013037;28;95022;-71
2022/03/24 02:35:02;;;;;;;56.38;39.83;;;;;;;;;;5015037;28;92430;-71
2022/03/24 02:37:30;;;;;;;65.80;39.45;;;;;;;;;;5012991;28;93186;-71
2022/03/24 02:39:57;;;;;;;62.50;39.50;;;;;;;;;;5011399;28;93905;-71
2022/03/24 02:42:29;;;;;;;61.88;38.38;;;;;;;;;;5011264;28;92516;-71
2022/03/24 02:44:57;;;;;;;60.40;39.20;;;;;;;;;;5012330;28;94061;-71
2022/03/24 02:47:24;;;;;;;62.92;39.30;;;;;;;;;;5015759;28;92436;-71
2022/03/24 02:49:51;;;;;;;68.88;40.88;;;;;;;;;;5011224;28;93403;-72
2022/03/24 02:52:17;;;;;;;63.35;39.08;;;;;;;;;;5011846;28;93606;-72
2022/03/24 02:54:44;;;;;;;70.40;40.63;;;;;;;;;;5010597;28;95669;-71
2022/03/24 02:57:11;;;;;;;67.72;39.53;;;;;;;;;;5011983;28;95648;-71
2022/03/24 02:59:38;;;;;;;63.67;41.38;;;;;;;;;;5011860;28;94124;-71
2022/03/24 03:02:06;;;;;;;69.13;39.97;;;;;;;;;;5011240;28;92481;-71
2022/03/24 03:04:33;;;;;;;64.53;39.85;;;;;;;;;;5011191;28;92947;-71
2022/03/24 03:07:00;;;;;;;63.28;39.03;;;;;;;;;;5010849;28;94397;-71
2022/03/24 03:09:27;;;;;;;58.95;38.88;;;;;;;;;;5014657;28;92532;-71
2022/03/24 03:11:53;;;;;;;58.97;37.67;;;;;;;;;;5012213;28;93627;-71
2022/03/24 03:14:20;;;;;;;64.10;38.97;;;;;;;;;;5010167;28;92985;-71
2022/03/24 03:16:46;;;;;;;62.72;37.90;;;;;;;;;;5011893;28;94070;-71
2022/03/24 03:19:13;;;;;;;60.88;40.38;;;;;;;;;;5009799;28;95542;-72
2022/03/24 03:21:41;;;;;;;62.00;40.75;;;;;;;;;;5010946;28;94131;-71
2022/03/24 03:24:08;;;;;;;61.45;39.55;;;;;;;;;;5011565;28;93348;-71
2022/03/24 03:26:35;;;;;;;67.72;40.10;;;;;;;;;;5010717;28;93707;-72
2022/03/24 03:29:01;;;;;;;68.88;42.33;;;;;;;;;;5012345;28;92643;-71
2022/03/24 03:31:28;;;;;;;75.43;41.83;;;;;;;;;;5013689;28;93104;-71
2022/03/24 03:33:55;;;;;;;69.15;40.88;;;;;;;;;;5012318;28;92510;-71
2022/03/24 03:36:27;;;;;;;68.72;41.38;;;;;;;;;;5011669;28;94195;-71
2022/03/24 03:38:53;;;;;;;69.30;41.00;;;;;;;;;;5011563;28;93331;-71
2022/03/24 03:41:23;;;;;;;68.13;42.83;;;;;;;;;;5010205;28;92490;-71
2022/03/24 03:43:49;;;;;;;68.28;40.50;;;;;;;;;;5010863;28;95546;-71
2022/03/24 03:46:16;;;;;;;72.25;41.15;;;;;;;;;;5010379;28;94217;-71
2022/03/24 03:48:43;;;;;;;65.05;39.28;;;;;;;;;;5012113;28;92476;-71
2022/03/24 03:51:09;;;;;;;64.22;38.63;;;;;;;;;;5014069;28;93468;-71
2022/03/24 03:53:36;;;;;;;67.13;39.30;;;;;;;;;;5011368;28;92723;-71
2022/03/24 03:56:03;;;;;;;68.35;39.53;;;;;;;;;;5010928;28;93398;-71
2022/03/24 03:58:30;;;;;;;60.35;37.38;;;;;;;;;;5011393;28;92516;-71
2022/03/24 04:00:57;;;;;;;61.00;39.20;;;;;;;;;;5010159;28;91840;-72
2022/03/24 04:03:24;;;;;;;69.13;39.67;;;;;;;;;;5011570;28;93462;-71
2022/03/24 04:05:54;;;;;;;62.55;38.70;;;;;;;;;;5010057;28;92826;-71
2022/03/24 04:08:20;;;;;;;71.55;40.65;;;;;;;;;;5010207;28;94870;-71
2022/03/24 04:10:48;;;;;;;60.55;39.85;;;;;;;;;;5010928;28;96347;-71
2022/03/24 04:13:15;;;;;;;61.17;38.55;;;;;;;;;;5013311;28;93648;-71
2022/03/24 04:15:41;;;;;;;54.05;37.55;;;;;;;;;;5011426;28;93778;-71
2022/03/24 04:18:09;;;;;;;66.38;39.33;;;;;;;;;;5010820;28;93383;-71
2022/03/24 04:20:36;;;;;;;58.00;38.03;;;;;;;;;;5010505;28;92956;-71
2022/03/24 04:23:03;;;;;;;57.83;37.90;;;;;;;;;;5011311;28;94082;-71
2022/03/24 04:25:29;;;;;;;75.40;39.47;;;;;;;;;;5010926;28;93483;-71
2022/03/24 04:28:00;;;;;;;59.42;39.10;;;;;;;;;;5010234;28;92614;-71
2022/03/24 04:30:27;;;;;;;68.82;39.85;;;;;;;;;;5009690;28;92848;-71
2022/03/24 04:32:54;;;;;;;63.92;39.55;;;;;;;;;;5009868;28;96956;-71
2022/03/24 04:35:21;;;;;;;60.72;39.92;;;;;;;;;;5013339;28;93086;-71
2022/03/24 04:37:48;;;;;;;63.58;39.63;;;;;;;;;;5011309;28;94191;-71
2022/03/24 04:40:17;;;;;;;73.00;40.28;;;;;;;;;;5009690;28;94077;-72
2022/03/24 04:42:45;;;;;;;69.78;40.88;;;;;;;;;;5010031;28;94078;-71
2022/03/24 04:45:12;;;;;;;75.43;40.60;;;;;;;;;;5009754;28;94216;-71
2022/03/24 04:47:39;;;;;;;67.07;40.08;;;;;;;;;;5010108;28;93209;-71
2022/03/24 04:50:06;;;;;;;69.35;39.00;;;;;;;;;;5009777;28;93926;-71
2022/03/24 04:52:32;;;;;;;57.47;37.50;;;;;;;;;;5010159;28;93033;-71
2022/03/24 04:55:01;;;;;;;64.20;38.78;;;;;;;;;;5009860;28;92595;-71
2022/03/24 04:57:28;;;;;;;61.70;40.38;;;;;;;;;;4992517;28;95211;-71
2022/03/24 04:59:55;;;;;;;64.32;39.70;;;;;;;;;;4998230;28;92546;-71
2022/03/24 05:02:22;;;;;;;67.18;41.40;;;;;;;;;;5009413;28;93948;-71
2022/03/24 05:04:48;;;;;;;61.90;38.28;;;;;;;;;;5013147;28;93339;-71
2022/03/24 05:07:15;;;;;;;64.55;39.72;;;;;;;;;;5014006;28;92968;-71
2022/03/24 05:09:41;;;;;;;57.47;37.17;;;;;;;;;;5012960;28;94124;-71
2022/03/24 05:12:11;;;;;;;67.97;41.25;;;;;;;;;;5014470;28;93256;-71
2022/03/24 05:14:38;;;;;;;68.32;39.60;;;;;;;;;;5013923;28;91840;-71
2022/03/24 05:17:06;;;;;;;68.13;39.75;;;;;;;;;;5013647;28;93281;-71
2022/03/24 05:19:32;;;;;;;59.38;37.80;;;;;;;;;;5015773;28;93466;-71
2022/03/24 05:21:58;;;;;;;61.70;39.22;;;;;;;;;;5010791;28;96871;-72
2022/03/24 05:24:25;;;;;;;64.80;39.80;;;;;;;;;;5011949;28;94293;-72
2022/03/24 05:26:51;;;;;;;62.72;38.85;;;;;;;;;;5014032;28;92460;-71
2022/03/24 05:29:18;;;;;;;65.40;40.90;;;;;;;;;;5013192;28;93298;-71
2022/03/24 05:31:45;;;;;;;63.65;39.08;;;;;;;;;;5013337;28;93357;-71
2022/03/24 05:34:12;;;;;;;62.28;40.78;;;;;;;;;;5011730;28;92454;-71
2022/03/24 05:36:38;;;;;;;68.00;40.95;;;;;;;;;;5012498;28;94265;-72
2022/03/24 05:39:05;;;;;;;61.50;38.47;;;;;;;;;;5012731;28;92524;-71
2022/03/24 05:41:31;;;;;;;75.78;42.22;;;;;;;;;;5014827;28;92562;-71
2022/03/24 05:44:04;;;;;;;71.43;40.47;;;;;;;;;;5013536;28;94425;-72
2022/03/24 05:46:41;;;;;;;60.88;40.10;;;;;;;;;;5011378;28;96018;-71
2022/03/24 05:49:08;;;;;;;69.25;40.80;;;;;;;;;;5013754;28;96625;-72
2022/03/24 05:51:53;;;;;;;77.90;40.95;;;;;;;;;;5012235;28;92656;-72
2022/03/24 05:54:20;;;;;;;65.88;38.83;;;;;;;;;;5014561;28;93898;-71
2022/03/24 05:56:48;;;;;;;58.30;37.88;;;;;;;;;;5014039;28;93706;-71
2022/03/24 05:59:15;;;;;;;67.80;40.80;;;;;;;;;;5010816;28;94371;-71
2022/03/24 06:01:43;;;;;;;68.53;39.47;;;;;;;;;;5016742;28;92557;-71
2022/03/24 06:04:13;;;;;;;69.10;40.92;;;;;;;;;;5013524;28;92594;-71
2022/03/24 06:06:41;;;;;;;65.43;39.10;;;;;;;;;;5012004;28;93064;-71
2022/03/24 06:09:07;;;;;;;70.88;40.67;;;;;;;;;;5011564;28;94038;-71
2022/03/24 06:11:35;;;;;;;68.53;40.22;;;;;;;;;;5011865;28;95750;-71
2022/03/24 06:14:03;;;;;;;70.80;39.95;;;;;;;;;;5010415;28;93035;-71
2022/03/24 06:16:29;;;;;;;65.50;39.78;;;;;;;;;;5012560;28;94051;-71
2022/03/24 06:18:56;;;;;;;66.05;40.33;;;;;;;;;;5012419;28;93158;-71
2022/03/24 06:21:23;;;;;;;71.60;40.22;;;;;;;;;;5012101;28;92457;-71
2022/03/24 06:23:50;;;;;;;61.75;39.40;;;;;;;;;;5014672;28;93893;-71
2022/03/24 06:26:19;;;;;;;67.40;40.47;;;;;;;;;;5012459;28;92448;-71
2022/03/24 06:28:45;;;;;;;61.53;39.45;;;;;;;;;;5013695;28;94410;-71
2022/03/24 06:31:12;;;;;;;67.63;41.75;;;;;;;;;;5011666;28;93584;-71
2022/03/24 06:33:39;;;;;;;69.65;41.58;;;;;;;;;;5012612;28;93556;-71
2022/03/24 06:36:06;;;;;;;59.67;41.25;;;;;;;;;;5009894;28;95652;-71
2022/03/24 06:38:32;;;;;;;83.30;42.15;;;;;;;;;;5011152;28;94301;-71
2022/03/24 06:40:58;;;;;;;63.40;41.13;;;;;;;;;;5011172;28;94883;-71
2022/03/24 06:43:25;;;;;;;77.68;41.83;;;;;;;;;;5011479;28;94075;-72
2022/03/24 06:45:51;;;;;;;71.00;45.03;;;;;;;;;;5015819;28;93134;-71
2022/03/24 06:48:18;;;;;;;81.68;44.15;;;;;;;;;;5011105;28;93141;-71
2022/03/24 06:50:45;;;;;;;75.88;44.83;;;;;;;;;;5012845;28;94286;-71
2022/03/24 06:53:12;;;;;;;79.00;46.40;;;;;;;;;;5012636;28;91856;-71
2022/03/24 06:55:38;;;;;;;65.78;43.78;;;;;;;;;;5012305;28;93727;-71
2022/03/24 06:58:04;;;;;;;76.43;47.38;;;;;;;;;;5011828;28;94250;-72
2022/03/24 07:00:31;;;;;;;74.85;47.50;;;;;;;;;;5009735;28;95018;-71
2022/03/24 07:02:58;;;;;;;80.60;47.97;;;;;;;;;;5009905;28;96291;-71
2022/03/24 07:05:25;;;;;;;89.93;47.78;;;;;;;;;;5011206;28;93405;-71
2022/03/24 07:07:51;;;;;;;76.65;48.50;;;;;;;;;;5013957;28;92626;-71
2022/03/24 07:10:17;;;;;;;75.25;47.25;;;;;;;;;;5011522;28;94089;-72
2022/03/24 07:12:44;;;;;;;83.20;47.53;;;;;;;;;;5012124;28;94278;-72
2022/03/24 07:15:12;;;;;;;71.18;47.75;;;;;;;;;;5011855;28;93954;-72
2022/03/24 07:17:38;;;;;;;70.40;42.60;;;;;;;;;;5011158;28;93466;-70
2022/03/24 07:20:05;;;;;;;73.97;44.67;;;;;;;;;;5010788;28;93030;-71
2022/03/24 07:22:32;;;;;;;74.95;46.88;;;;;;;;;;5011285;28;93981;-71
2022/03/24 07:24:59;;;;;;;69.90;44.72;;;;;;;;;;5009574;28;96382;-71
2022/03/24 07:27:26;;;;;;;60.72;43.45;;;;;;;;;;5010108;28;93958;-71
2022/03/24 07:29:56;;;;;;;71.35;42.15;;;;;;;;;;5013344;28;92488;-71
2022/03/24 07:32:24;;;;;;;65.38;44.00;;;;;;;;;;5008929;28;92542;-71
2022/03/24 07:34:50;;;;;;;67.85;44.20;;;;;;;;;;5010908;28;93972;-71
2022/03/24 07:37:16;;;;;;;66.03;42.15;;;;;;;;;;5009257;28;93489;-71
2022/03/24 07:39:43;;;;;;;70.95;41.90;;;;;;;;;;5008632;28;92589;-71
2022/03/24 07:42:09;;;;;;;70.30;43.95;;;;;;;;;;5010868;28;93104;-71
2022/03/24 07:44:35;;;;;;;60.05;42.72;;;;;;;;;;5009746;28;94147;-71
2022/03/24 07:47:02;;;;;;;64.68;41.97;;;;;;;;;;5007075;28;93346;-71
2022/03/24 07:49:29;;;;;;;68.07;42.83;;;;;;;;;;4999965;28;94983;-71
2022/03/24 07:51:55;;;;;;;66.45;43.05;;;;;;;;;;5012618;28;93357;-71
2022/03/24 07:54:40;;;;;;;67.03;42.83;;;;;;;;;;5011797;28;93803;-71
2022/03/24 07:57:06;;;;;;;61.55;41.38;;;;;;;;;;5010972;28;93266;-71
2022/03/24 07:59:38;;;;;;;54.25;38.47;;;;;;;;;;5008748;28;92532;-71
2022/03/24 08:02:06;;;;;;;61.65;42.55;;;;;;;;;;5008110;28;93372;-71
2022/03/24 08:04:34;;;;;;;68.03;42.65;;;;;;;;;;5009598;28;94202;-71
2022/03/24 08:07:00;;;;;;;63.15;39.33;;;;;;;;;;5007579;28;92057;-71
2022/03/24 08:09:26;;;;;;;66.55;40.85;;;;;;;;;;5009652;28;92580;-71
2022/03/24 08:11:53;;;;;;;65.25;39.40;;;;;;;;;;5012661;28;93278;-70
2022/03/24 08:14:19;;;;;;;60.00;38.70;;;;;;;;;;5010298;28;95158;-71
2022/03/24 08:16:45;;;;;;;65.32;41.17;;;;;;;;;;5008084;27;94154;-70
2022/03/24 08:19:14;;;;;;;72.82;42.35;;;;;;;;;;4998928;28;92496;-70
2022/03/24 08:21:40;;;;;;;72.50;39.90;;;;;;;;;;5002051;28;93996;-70
2022/03/24 08:24:08;;;;;;;63.97;42.10;;;;;;;;;;4999712;28;94294;-70
2022/03/24 08:26:35;;;;;;;64.60;41.78;;;;;;;;;;5010629;28;92457;-70
2022/03/24 08:29:01;;;;;;;60.63;40.97;;;;;;;;;;5011753;28;93201;-71
2022/03/24 08:31:28;;;;;;;56.75;39.70;;;;;;;;;;5011635;28;93528;-71
2022/03/24 08:33:54;;;;;;;56.85;38.05;;;;;;;;;;5011493;28;92625;-70
2022/03/24 08:36:21;;;;;;;57.08;38.03;;;;;;;;;;5009647;28;94240;-71
2022/03/24 08:38:47;;;;;;;57.53;37.08;;;;;;;;;;5005531;28;95614;-70
2022/03/24 08:41:13;;;;;;;58.55;36.80;;;;;;;;;;4993505;28;96371;-70
2022/03/24 08:43:40;;;;;;;48.08;33.03;;;;;;;;;;4998475;28;94402;-70
2022/03/24 08:46:09;;;;;;;46.15;30.92;;;;;;;;;;5010931;28;93282;-71
2022/03/24 08:48:36;;;;;;;47.53;29.55;;;;;;;;;;5012495;28;93945;-70
2022/03/24 08:51:03;;;;;;;44.70;26.52;;;;;;;;;;5013364;28;93453;-70
2022/03/24 08:53:29;;;;;;;46.00;31.65;;;;;;;;;;5014357;28;94001;-71
2022/03/24 08:55:55;;;;;;;38.65;27.85;;;;;;;;;;5005977;28;94307;-71
2022/03/24 08:58:22;;;;;;;41.90;29.00;;;;;;;;;;5002827;28;92528;-71
2022/03/24 09:00:48;;;;;;;42.35;28.10;;;;;;;;;;5009041;28;94533;-71
2022/03/24 09:03:20;;;;;;;38.83;27.92;;;;;;;;;;5012342;28;96496;-71
2022/03/24 09:05:47;;;;;;;46.03;30.38;;;;;;;;;;5012001;28;92541;-70
2022/03/24 09:08:13;;;;;;;51.17;29.42;;;;;;;;;;5009652;28;93916;-71
2022/03/24 09:10:40;;;;;;;47.22;29.25;;;;;;;;;;5015052;28;93775;-71
2022/03/24 09:13:08;;;;;;;37.92;28.75;;;;;;;;;;5011254;28;92596;-70
2022/03/24 09:15:36;;;;;;;39.40;28.20;;;;;;;;;;5013729;28;92843;-70
2022/03/24 09:18:04;;;;;;;38.03;25.75;;;;;;;;;;5012901;28;93097;-70
2022/03/24 09:20:31;;;;;;;35.03;25.50;;;;;;;;;;5013819;28;94509;-71
2022/03/24 09:22:57;;;;;;;30.77;25.13;;;;;;;;;;5007499;28;94337;-71
2022/03/24 09:25:24;;;;;;;29.20;23.50;;;;;;;;;;5013896;28;92907;-70
2022/03/24 09:27:51;;;;;;;34.35;24.85;;;;;;;;;;5011223;28;94825;-70
2022/03/24 09:30:18;;;;;;;38.92;24.80;;;;;;;;;;4998150;28;94227;-70
2022/03/24 09:32:45;;;;;;;30.80;24.38;;;;;;;;;;5012740;27;92579;-70
2022/03/24 09:35:12;;;;;;;28.15;23.63;;;;;;;;;;5010905;28;93276;-70
2022/03/24 09:37:39;;;;;;;42.78;23.95;;;;;;;;;;5006037;28;94226;-70
2022/03/24 09:40:06;;;;;;;32.58;25.15;;;;;;;;;;5016161;28;94810;-71
2022/03/24 09:42:32;;;;;;;32.08;23.10;;;;;;;;;;5010804;28;94204;-71
2022/03/24 09:45:03;;;;;;;33.78;22.77;;;;;;;;;;5011598;28;93335;-71
2022/03/24 09:47:29;;;;;;;34.97;23.55;;;;;;;;;;5009702;28;92790;-71
2022/03/24 09:49:56;;;;;;;31.30;22.85;;;;;;;;;;5007548;28;93488;-71
2022/03/24 09:52:24;;;;;;;30.58;23.85;;;;;;;;;;5010667;28;95350;-70
2022/03/24 09:54:51;;;;;;;34.30;23.65;;;;;;;;;;5005126;28;95908;-70
2022/03/24 09:57:18;;;;;;;29.15;23.30;;;;;;;;;;4999282;28;93081;-71
2022/03/24 09:59:45;;;;;;;36.25;24.15;;;;;;;;;;5005473;28;93096;-71
2022/03/24 10:02:11;;;;;;;35.90;23.65;;;;;;;;;;5014193;28;93232;-71
2022/03/24 10:04:44;;;;;;;34.92;23.45;;;;;;;;;;5010242;28;92817;-71
2022/03/24 10:07:14;;;;;;;38.65;25.25;;;;;;;;;;5005966;28;93047;-71
2022/03/24 10:09:42;;;;;;;32.33;23.92;;;;;;;;;;5012097;28;92844;-71
2022/03/24 10:12:17;;;;;;;33.78;24.33;;;;;;;;;;5011170;28;94400;-72
2022/03/24 10:14:43;;;;;;;32.47;21.88;;;;;;;;;;5011447;28;94034;-71
2022/03/24 10:17:11;;;;;;;27.85;19.90;;;;;;;;;;5013593;28;95594;-71
2022/03/24 10:19:37;;;;;;;26.75;19.10;;;;;;;;;;5020110;27;94068;-71
2022/03/24 10:22:08;;;;;;;22.63;19.73;;;;;;;;;;5007688;28;93517;-71
2022/03/24 10:24:41;;;;;;;24.10;20.27;;;;;;;;;;5015767;28;92519;-71
2022/03/24 10:27:08;;;;;;;25.67;20.75;;;;;;;;;;5014332;27;93413;-71
2022/03/24 10:29:35;;;;;;;25.55;19.85;;;;;;;;;;5011918;28;94799;-71
2022/03/24 10:32:03;;;;;;;29.08;21.73;;;;;;;;;;5013685;28;92648;-71
2022/03/24 10:34:31;;;;;;;27.20;20.80;;;;;;;;;;5010267;28;92251;-71
2022/03/24 10:37:00;;;;;;;33.85;20.75;;;;;;;;;;5009054;28;93399;-71
2022/03/24 10:39:27;;;;;;;31.85;21.90;;;;;;;;;;5018971;27;92519;-71
2022/03/24 10:41:53;;;;;;;40.67;20.42;;;;;;;;;;5016784;28;95671;-71
2022/03/24 10:44:20;;;;;;;36.75;21.73;;;;;;;;;;5014995;28;94254;-71
2022/03/24 10:46:48;;;;;;;32.47;22.55;;;;;;;;;;5012889;27;93132;-71
2022/03/24 10:49:23;;;;;;;33.35;22.40;;;;;;;;;;5011257;28;94041;-71
2022/03/24 10:51:55;;;;;;;25.48;19.60;;;;;;;;;;5010770;28;92477;-71
2022/03/24 10:54:26;;;;;;;31.70;21.55;;;;;;;;;;5004190;28;93078;-71
2022/03/24 10:56:52;;;;;;;26.60;19.40;;;;;;;;;;4996050;28;94071;-71
2022/03/24 10:59:18;;;;;;;34.67;21.38;;;;;;;;;;5012628;27;91750;-71
2022/03/24 11:01:46;;;;;;;32.33;22.85;;;;;;;;;;5009889;28;92815;-71
2022/03/24 11:04:13;;;;;;;28.20;23.00;;;;;;;;;;5022853;28;94108;-71
2022/03/24 11:06:49;;;;;;;33.45;21.35;;;;;;;;;;5013365;28;94970;-71
2022/03/24 11:09:29;;;;;;;30.20;20.70;;;;;;;;;;4991712;28;94672;-71
2022/03/24 11:12:16;;;;;;;30.52;21.38;;;;;;;;;;5006350;28;93322;-71
2022/03/24 11:14:42;;;;;;;39.95;22.05;;;;;;;;;;5011741;28;93919;-70
2022/03/24 11:17:08;;;;;;;33.10;22.00;;;;;;;;;;5007504;28;93311;-71
2022/03/24 11:19:35;;;;;;;31.35;22.35;;;;;;;;;;5010426;28;93075;-70
2022/03/24 11:22:01;;;;;;;40.30;23.27;;;;;;;;;;5005252;28;93967;-70
2022/03/24 11:24:28;;;;;;;39.35;22.08;;;;;;;;;;5019164;28;92693;-70
2022/03/24 11:26:54;;;;;;;32.55;22.45;;;;;;;;;;5013942;28;93978;-70
2022/03/24 11:29:39;;;;;;;36.83;23.17;;;;;;;;;;5011858;28;94200;-70
2022/03/24 11:32:07;;;;;;;29.73;22.30;;;;;;;;;;5002686;28;96490;-71
2022/03/24 11:34:34;;;;;;;35.17;22.92;;;;;;;;;;5011689;28;95714;-71
2022/03/24 11:37:01;;;;;;;29.58;23.40;;;;;;;;;;5007626;28;94115;-72
2022/03/24 11:39:27;;;;;;;38.17;22.58;;;;;;;;;;5010769;28;94373;-70
2022/03/24 11:41:55;;;;;;;28.70;20.15;;;;;;;;;;5010796;28;93926;-69
2022/03/24 11:44:45;;;;;;;28.67;21.50;;;;;;;;;;5011116;28;94143;-70
2022/03/24 11:47:13;;;;;;;34.55;20.65;;;;;;;;;;5008512;28;92560;-70
2022/03/24 11:49:39;;;;;;;35.10;21.58;;;;;;;;;;5013224;27;93350;-69
2022/03/24 11:52:05;;;;;;;34.22;22.30;;;;;;;;;;5014948;28;93644;-69
2022/03/24 11:54:36;;;;;;;31.63;22.85;;;;;;;;;;5011861;28;94670;-69
2022/03/24 11:57:21;;;;;;;31.00;21.30;;;;;;;;;;5009751;28;95943;-70
2022/03/24 11:59:49;;;;;;;36.70;21.25;;;;;;;;;;5011626;28;92590;-69
2022/03/24 12:02:19;;;;;;;38.08;20.85;;;;;;;;;;5010251;28;92985;-70
2022/03/24 12:04:47;;;;;;;37.03;20.92;;;;;;;;;;4995413;28;92843;-69
2022/03/24 12:07:14;;;;;;;44.88;20.80;;;;;;;;;;5000021;28;92650;-70
2022/03/24 12:09:53;;;;;;;41.28;22.23;;;;;;;;;;5011464;28;93494;-69
2022/03/24 12:12:19;;;;;;;29.20;19.65;;;;;;;;;;5012350;28;93447;-70
2022/03/24 12:14:47;;;;;;;35.90;21.30;;;;;;;;;;5018761;28;91798;-70
2022/03/24 12:17:25;;;;;;;38.45;21.23;;;;;;;;;;5015120;28;93539;-69
2022/03/24 12:19:55;;;;;;;37.10;21.40;;;;;;;;;;5014708;27;92543;-70
2022/03/24 12:22:31;;;;;;;31.75;19.92;;;;;;;;;;5013445;28;94844;-69
2022/03/24 12:25:00;;;;;;;34.33;21.25;;;;;;;;;;5014918;28;93748;-69
2022/03/24 12:27:27;;;;;;;32.58;20.85;;;;;;;;;;5014559;28;92479;-69
2022/03/24 12:30:10;;;;;;;37.05;22.00;;;;;;;;;;5014837;28;94219;-69
2022/03/24 12:32:36;;;;;;;;;;;;;;;;;;5015401;27;93354;-70
2022/03/24 12:35:03;;;;;;;40.25;21.65;;;;;;;;;;5018975;28;121102;-70
2022/03/24 12:37:29;;;;;;;32.03;20.42;;;;;;;;;;5015157;27;94017;-69
2022/03/24 12:40:11;;;;;;;31.30;21.75;;;;;;;;;;5014329;28;92631;-70
2022/03/24 12:42:43;;;;;;;29.63;19.33;;;;;;;;;;4995232;28;92599;-70
2022/03/24 12:45:10;;;;;;;38.45;23.20;;;;;;;;;;5009789;28;94590;-70
2022/03/24 12:47:47;;;;;;;36.55;23.65;;;;;;;;;;5012220;28;95052;-70
2022/03/24 12:50:16;;;;;;;30.40;22.08;;;;;;;;;;5013916;28;96043;-70
2022/03/24 12:52:52;;;;;;;38.08;23.45;;;;;;;;;;5015032;28;93228;-70
2022/03/24 12:55:20;;;;;;;34.92;23.73;;;;;;;;;;5013409;28;92446;-70
2022/03/24 12:57:55;;;;;;;30.45;22.77;;;;;;;;;;5018049;27;93229;-70
2022/03/24 13:00:24;;;;;;;33.72;24.48;;;;;;;;;;5013547;28;92515;-70
2022/03/24 13:02:50;;;;;;;37.58;24.38;;;;;;;;;;5014667;28;93271;-69
2022/03/24 13:05:24;;;;;;;38.13;23.75;;;;;;;;;;5015009;28;92723;-70
2022/03/24 13:07:52;;;;;;;34.35;24.80;;;;;;;;;;5014138;28;92561;-69
2022/03/24 13:10:19;;;;;;;51.17;24.33;;;;;;;;;;5014040;28;94006;-70
2022/03/24 13:12:47;;;;;;;35.50;23.30;;;;;;;;;;5012960;28;96891;-69
2022/03/24 13:15:18;;;;;;;36.58;25.45;;;;;;;;;;5013731;28;92872;-70
2022/03/24 13:17:50;;;;;;;36.38;23.65;;;;;;;;;;5014343;28;93005;-70
2022/03/24 13:20:17;;;;;;;34.25;22.98;;;;;;;;;;5016304;28;93249;-69
2022/03/24 13:22:47;;;;;;;30.25;22.38;;;;;;;;;;5012726;28;93219;-69
2022/03/24 13:25:15;;;;;;;32.17;24.33;;;;;;;;;;5011654;28;93603;-69
2022/03/24 13:27:44;;;;;;;42.50;24.73;;;;;;;;;;5014351;28;92454;-69
2022/03/24 13:30:12;;;;;;;41.95;24.73;;;;;;;;;;5013839;28;92060;-70
2022/03/24 13:32:39;;;;;;;31.58;23.75;;;;;;;;;;5013855;28;93448;-69
2022/03/24 13:35:07;;;;;;;33.78;23.77;;;;;;;;;;5014079;28;92956;-70
2022/03/24 13:37:38;;;;;;;39.08;23.92;;;;;;;;;;5011982;28;95147;-70
2022/03/24 13:40:05;;;;;;;38.67;23.60;;;;;;;;;;5013585;28;93212;-70
2022/03/24 13:42:32;;;;;;;34.25;23.77;;;;;;;;;;5016127;28;92502;-69
2022/03/24 13:44:58;;;;;;;32.20;23.88;;;;;;;;;;5013816;28;93474;-70
2022/03/24 13:47:25;;;;;;;38.10;23.65;;;;;;;;;;5011598;28;92798;-70
2022/03/24 13:49:56;;;;;;;36.15;23.30;;;;;;;;;;5012605;28;94030;-70
2022/03/24 13:52:34;;;;;;;36.63;23.65;;;;;;;;;;5013486;28;94268;-70
2022/03/24 13:55:08;;;;;;;34.30;23.27;;;;;;;;;;5014873;28;91824;-70
2022/03/24 13:57:48;;;;;;;30.77;21.70;;;;;;;;;;5012898;28;93480;-70
2022/03/24 14:00:28;;;;;;;38.20;21.95;;;;;;;;;;5013008;28;94529;-70
2022/03/24 14:03:03;;;;;;;31.35;21.98;;;;;;;;;;5012214;28;95980;-70
2022/03/24 14:05:47;;;;;;;35.63;22.63;;;;;;;;;;5015900;28;95414;-70
2022/03/24 14:08:13;;;;;;;;;;;;;;;;;;5013810;28;92451;-70
2022/03/24 14:10:47;;;;;;;31.85;22.17;;;;;;;;;;5013753;28;121125;-70
2022/03/24 14:13:15;;;;;;;30.40;21.30;;;;;;;;;;5013076;28;94261;-70
2022/03/24 14:15:41;;;;;;;31.25;23.42;;;;;;;;;;5013670;28;92451;-70
2022/03/24 14:18:11;;;;;;;36.65;21.92;;;;;;;;;;5012639;28;94189;-70
2022/03/24 14:20:44;;;;;;;30.67;23.27;;;;;;;;;;5013613;28;93220;-69
2022/03/24 14:23:27;;;;;;;44.08;24.70;;;;;;;;;;5012963;28;92499;-70